createdAt,value
2022-10-13T00:01:24.834Z,9.01
2022-10-13T00:03:53.927Z,9.00
2022-10-13T00:06:24.700Z,9.00
2022-10-13T00:08:54.238Z,9.01
2022-10-13T00:11:31.706Z,9.00
2022-10-13T00:14:02.208Z,9.01
2022-10-13T00:16:32.891Z,9.03
2022-10-13T00:19:01.172Z,9.03
2022-10-13T00:21:29.998Z,9.04
2022-10-13T00:23:58.908Z,9.04
2022-10-13T00:26:27.312Z,9.04
2022-10-13T00:28:56.621Z,9.06
2022-10-13T00:31:30.883Z,9.06
2022-10-13T00:34:01.724Z,9.07
2022-10-13T00:36:30.525Z,9.08
2022-10-13T00:38:58.845Z,9.08
2022-10-13T00:41:29.210Z,9.09
2022-10-13T00:44:28.135Z,9.11
2022-10-13T00:46:56.444Z,9.12
2022-10-13T00:49:24.788Z,9.13
2022-10-13T00:51:53.068Z,9.14
2022-10-13T00:54:24.766Z,9.15
2022-10-13T00:56:54.336Z,9.17
2022-10-13T00:59:29.322Z,9.17
2022-10-13T01:01:59.407Z,9.18
2022-10-13T01:04:34.714Z,9.20
2022-10-13T01:07:06.598Z,9.21
2022-10-13T01:09:37.989Z,9.21
2022-10-13T01:12:33.027Z,9.21
2022-10-13T01:15:21.453Z,9.22
2022-10-13T01:17:55.677Z,9.22
2022-10-13T01:21:02.124Z,9.23
2022-10-13T01:23:55.679Z,9.23
2022-10-13T01:26:48.746Z,9.23
2022-10-13T01:29:46.460Z,9.24
2022-10-13T01:32:35.750Z,9.25
2022-10-13T01:35:16.341Z,9.24
2022-10-13T01:37:48.977Z,9.24
2022-10-13T01:40:31.049Z,9.23
2022-10-13T01:43:16.194Z,9.23
2022-10-13T01:45:54.127Z,9.23
2022-10-13T01:48:24.230Z,9.23
2022-10-13T01:50:54.323Z,9.22
2022-10-13T01:53:23.984Z,9.24
2022-10-13T01:55:57.589Z,9.23
2022-10-13T01:58:29.182Z,9.23
2022-10-13T02:01:24.599Z,9.23
2022-10-13T02:04:06.946Z,9.22
2022-10-13T02:06:42.833Z,9.23
2022-10-13T02:09:18.927Z,9.23
2022-10-13T02:11:54.081Z,9.23
2022-10-13T02:14:27.553Z,9.23
2022-10-13T02:17:00.337Z,9.21
2022-10-13T02:19:30.523Z,9.23
2022-10-13T02:22:01.427Z,9.22
2022-10-13T02:24:29.621Z,9.22
2022-10-13T02:26:58.246Z,9.23
2022-10-13T02:29:26.556Z,9.23
2022-10-13T02:31:54.971Z,9.24
2022-10-13T02:34:23.335Z,9.25
2022-10-13T02:36:51.626Z,9.26
2022-10-13T02:39:20.051Z,9.27
2022-10-13T02:41:48.506Z,9.27
2022-10-13T02:44:17.427Z,9.28
2022-10-13T02:46:45.668Z,9.29
2022-10-13T02:49:13.952Z,9.30
2022-10-13T02:51:42.309Z,9.30
2022-10-13T02:54:10.625Z,9.31
2022-10-13T02:56:39.482Z,9.31
2022-10-13T02:59:07.740Z,9.30
2022-10-13T03:01:41.127Z,9.30
2022-10-13T03:04:10.007Z,9.29
2022-10-13T03:06:38.527Z,9.29
2022-10-13T03:09:07.301Z,9.28
2022-10-13T03:11:36.966Z,9.28
2022-10-13T03:14:05.238Z,9.27
2022-10-13T03:16:33.667Z,9.27
2022-10-13T03:19:01.960Z,9.26
2022-10-13T03:21:30.276Z,9.24
2022-10-13T03:23:58.714Z,9.23
2022-10-13T03:26:28.614Z,9.23
2022-10-13T03:28:58.361Z,9.22
2022-10-13T03:31:27.007Z,9.20
2022-10-13T03:34:03.393Z,9.21
2022-10-13T03:36:32.164Z,9.20
2022-10-13T03:39:00.594Z,9.20
2022-10-13T03:41:28.934Z,9.19
2022-10-13T03:43:57.233Z,9.20
2022-10-13T03:46:29.140Z,9.20
2022-10-13T03:48:59.168Z,9.20
2022-10-13T03:51:28.089Z,9.21
2022-10-13T03:53:56.457Z,9.21
2022-10-13T03:56:27.020Z,9.20
2022-10-13T03:58:59.809Z,9.20
2022-10-13T04:01:32.625Z,9.20
2022-10-13T04:04:04.388Z,9.20
2022-10-13T04:06:34.845Z,9.18
2022-10-13T04:09:03.780Z,9.20
2022-10-13T04:11:32.581Z,9.21
2022-10-13T04:14:01.037Z,9.22
2022-10-13T04:16:31.848Z,9.23
2022-10-13T04:19:04.022Z,9.23
2022-10-13T04:21:34.707Z,9.24
2022-10-13T04:24:04.083Z,9.25
2022-10-13T04:26:35.557Z,9.25
2022-10-13T04:29:09.446Z,9.26
2022-10-13T04:31:39.229Z,9.25
2022-10-13T04:34:07.849Z,9.27
2022-10-13T04:36:36.936Z,9.26
2022-10-13T04:39:05.359Z,9.25
2022-10-13T04:41:35.118Z,9.26
2022-10-13T04:44:03.490Z,9.28
2022-10-13T04:46:32.063Z,9.29
2022-10-13T04:49:01.631Z,9.28
2022-10-13T04:51:34.043Z,9.28
2022-10-13T04:54:02.828Z,9.29
2022-10-13T04:56:33.067Z,9.28
2022-10-13T04:59:05.976Z,9.28
2022-10-13T05:01:36.023Z,9.29
2022-10-13T05:04:10.117Z,9.29
2022-10-13T05:07:05.243Z,9.29
2022-10-13T05:09:29.566Z,9.29
2022-10-13T05:11:57.995Z,9.30
2022-10-13T05:14:26.950Z,9.31
2022-10-13T05:16:55.167Z,9.32
2022-10-13T05:19:23.735Z,9.31
2022-10-13T05:21:53.768Z,9.32
2022-10-13T05:24:31.020Z,9.31
2022-10-13T05:26:59.599Z,9.31
2022-10-13T05:29:28.027Z,9.33
2022-10-13T05:31:56.480Z,9.33
2022-10-13T05:34:24.870Z,9.34
2022-10-13T05:36:53.425Z,9.33
2022-10-13T05:39:22.288Z,9.34
2022-10-13T05:41:50.859Z,9.34
2022-10-13T05:44:22.405Z,9.34
2022-10-13T05:46:57.142Z,9.34
2022-10-13T05:49:25.689Z,9.34
2022-10-13T05:52:00.445Z,9.33
2022-10-13T05:55:05.629Z,9.33
2022-10-13T05:57:38.306Z,9.32
2022-10-13T06:00:28.274Z,9.32
2022-10-13T06:03:05.789Z,9.31
2022-10-13T06:05:37.610Z,9.31
2022-10-13T06:08:06.083Z,9.31
2022-10-13T06:10:37.392Z,9.32
2022-10-13T06:13:05.754Z,9.31
2022-10-13T06:15:34.165Z,9.32
2022-10-13T06:18:02.587Z,9.34
2022-10-13T06:20:31.003Z,9.34
2022-10-13T06:22:59.735Z,9.35
2022-10-13T06:25:30.421Z,9.35
2022-10-13T06:28:00.369Z,9.36
2022-10-13T06:30:29.126Z,9.36
2022-10-13T06:32:57.763Z,9.41
2022-10-13T06:35:26.031Z,9.42
2022-10-13T06:37:57.411Z,9.44
2022-10-13T06:40:26.501Z,9.44
2022-10-13T06:42:54.678Z,9.45
2022-10-13T06:45:24.535Z,9.45
2022-10-13T06:47:54.561Z,9.47
2022-10-13T06:50:23.513Z,9.48
2022-10-13T06:52:56.839Z,9.51
2022-10-13T06:55:26.684Z,9.53
2022-10-13T06:57:54.948Z,9.56
2022-10-13T07:00:24.739Z,9.60
2022-10-13T07:02:53.140Z,9.64
2022-10-13T07:05:21.390Z,9.68
2022-10-13T07:07:54.032Z,9.72
2022-10-13T07:10:22.403Z,9.79
2022-10-13T07:12:50.911Z,9.84
2022-10-13T07:15:19.235Z,9.89
2022-10-13T07:17:53.979Z,9.93
2022-10-13T07:20:24.099Z,9.98
2022-10-13T07:22:54.774Z,10.00
2022-10-13T07:25:25.056Z,10.04
2022-10-13T07:27:53.468Z,10.10
2022-10-13T07:30:21.926Z,10.15
2022-10-13T07:32:50.372Z,10.20
2022-10-13T07:35:19.977Z,10.24
2022-10-13T07:37:48.677Z,10.29
2022-10-13T07:40:20.270Z,10.34
2022-10-13T07:42:48.727Z,10.40
2022-10-13T07:45:17.146Z,10.46
2022-10-13T07:47:45.460Z,10.51
2022-10-13T07:50:13.763Z,10.58
2022-10-13T07:52:42.078Z,10.64
2022-10-13T07:55:13.405Z,10.71
2022-10-13T07:57:41.724Z,10.73
2022-10-13T08:00:11.590Z,10.76
2022-10-13T08:02:42.836Z,10.77
2022-10-13T08:05:11.231Z,10.80
2022-10-13T08:07:39.589Z,10.80
2022-10-13T08:10:08.776Z,10.79
2022-10-13T08:12:37.735Z,10.79
2022-10-13T08:15:08.602Z,10.80
2022-10-13T08:17:37.081Z,10.79
2022-10-13T08:20:06.706Z,10.80
2022-10-13T08:22:35.020Z,10.79
2022-10-13T08:25:03.523Z,10.79
2022-10-13T08:27:49.587Z,10.77
2022-10-13T08:30:19.814Z,10.78
2022-10-13T08:32:49.490Z,10.79
2022-10-13T08:35:19.324Z,10.79
2022-10-13T08:37:47.641Z,10.82
2022-10-13T08:40:20.831Z,10.86
2022-10-13T08:42:50.548Z,10.90
2022-10-13T08:45:40.991Z,10.96
2022-10-13T08:48:32.979Z,11.00
2022-10-13T08:51:06.157Z,10.99
2022-10-13T08:53:41.491Z,11.02
2022-10-13T08:56:14.011Z,11.04
2022-10-13T08:58:44.211Z,11.07
2022-10-13T09:01:20.102Z,11.10
2022-10-13T09:04:11.449Z,11.16
2022-10-13T09:06:48.352Z,11.19
2022-10-13T09:09:17.435Z,11.23
2022-10-13T09:11:49.438Z,11.27
2022-10-13T09:14:38.180Z,11.30
2022-10-13T09:17:20.397Z,11.33
2022-10-13T09:20:08.057Z,11.36
2022-10-13T09:22:38.710Z,11.38
2022-10-13T09:25:07.050Z,11.39
2022-10-13T09:28:08.811Z,11.42
2022-10-13T09:30:47.158Z,11.46
2022-10-13T09:33:20.883Z,11.50
2022-10-13T09:36:06.805Z,11.55
2022-10-13T09:38:35.120Z,11.58
2022-10-13T09:41:20.214Z,11.63
2022-10-13T09:43:48.637Z,11.68
2022-10-13T09:46:46.550Z,11.74
2022-10-13T09:49:32.623Z,11.79
2022-10-13T09:52:17.043Z,11.83
2022-10-13T09:54:50.158Z,11.87
2022-10-13T09:57:31.484Z,11.88
2022-10-13T10:00:26.184Z,11.90
2022-10-13T10:03:16.678Z,11.92
2022-10-13T10:05:55.862Z,11.93
2022-10-13T10:08:33.906Z,11.93
2022-10-13T10:11:27.569Z,11.92
2022-10-13T10:13:57.659Z,11.93
2022-10-13T10:16:41.378Z,11.95
2022-10-13T10:19:37.508Z,11.98
2022-10-13T10:22:14.129Z,12.01
2022-10-13T10:25:18.275Z,12.07
2022-10-13T10:28:08.003Z,12.11
2022-10-13T10:30:44.214Z,12.15
2022-10-13T10:33:20.230Z,12.17
2022-10-13T10:36:16.811Z,12.23
2022-10-13T10:38:49.114Z,12.29
2022-10-13T10:41:37.401Z,12.34
2022-10-13T10:44:24.965Z,12.38
2022-10-13T10:46:59.452Z,12.41
2022-10-13T10:49:36.348Z,12.41
2022-10-13T10:52:17.006Z,12.41
2022-10-13T10:55:15.198Z,12.42
2022-10-13T10:58:12.697Z,12.40
2022-10-13T11:01:31.195Z,12.40
2022-10-13T11:04:33.622Z,12.41
2022-10-13T11:07:03.589Z,12.40
2022-10-13T11:09:41.315Z,12.40
2022-10-13T11:12:19.089Z,12.42
2022-10-13T11:15:02.226Z,12.43
2022-10-13T11:17:34.747Z,12.46
2022-10-13T11:20:25.469Z,12.48
2022-10-13T11:22:59.799Z,12.52
2022-10-13T11:25:41.668Z,12.55
2022-10-13T11:28:22.388Z,12.57
2022-10-13T11:30:51.823Z,12.57
2022-10-13T11:33:38.523Z,12.56
2022-10-13T11:36:37.597Z,12.57
2022-10-13T11:39:33.432Z,12.58
2022-10-13T11:42:32.968Z,12.60
2022-10-13T11:45:21.640Z,12.62
2022-10-13T11:47:58.959Z,12.62
2022-10-13T11:51:01.084Z,12.63
2022-10-13T11:53:41.837Z,12.65
2022-10-13T11:56:22.402Z,12.67
2022-10-13T11:58:50.826Z,12.72
2022-10-13T12:01:19.752Z,12.73
2022-10-13T12:03:48.459Z,12.75
2022-10-13T12:06:32.559Z,12.77
2022-10-13T12:09:14.633Z,12.80
2022-10-13T12:11:44.290Z,12.83
2022-10-13T12:14:24.205Z,12.85
2022-10-13T12:16:57.854Z,12.87
2022-10-13T12:19:29.287Z,12.89
2022-10-13T12:22:03.844Z,12.94
2022-10-13T12:24:32.158Z,12.95
2022-10-13T12:27:21.474Z,12.98
2022-10-13T12:29:51.840Z,12.96
2022-10-13T12:32:31.967Z,12.98
2022-10-13T12:35:26.719Z,12.98
2022-10-13T12:37:57.094Z,13.02
2022-10-13T12:40:25.576Z,13.05
2022-10-13T12:42:54.104Z,13.07
2022-10-13T12:45:26.102Z,13.07
2022-10-13T12:47:55.089Z,13.11
2022-10-13T12:50:29.554Z,13.16
2022-10-13T12:53:20.630Z,13.20
2022-10-13T12:56:00.731Z,13.22
2022-10-13T12:58:31.315Z,13.24
2022-10-13T13:01:07.879Z,13.27
2022-10-13T13:03:38.794Z,13.30
2022-10-13T13:06:08.854Z,13.33
2022-10-13T13:08:37.304Z,13.33
2022-10-13T13:11:07.831Z,13.35
2022-10-13T13:13:36.199Z,13.37
2022-10-13T13:16:23.102Z,13.37
2022-10-13T13:18:52.005Z,13.37
2022-10-13T13:21:20.813Z,13.38
2022-10-13T13:23:52.905Z,13.37
2022-10-13T13:26:23.745Z,13.39
2022-10-13T13:28:54.813Z,13.40
2022-10-13T13:31:25.348Z,13.42
2022-10-13T13:33:53.774Z,13.44
2022-10-13T13:36:25.010Z,13.44
2022-10-13T13:38:54.324Z,13.46
2022-10-13T13:41:25.063Z,13.49
2022-10-13T13:43:53.337Z,13.50
2022-10-13T13:46:24.759Z,13.51
2022-10-13T13:48:53.504Z,13.51
2022-10-13T13:51:22.004Z,13.51
2022-10-13T13:53:50.510Z,13.52
2022-10-13T13:56:20.949Z,13.51
2022-10-13T13:58:49.349Z,13.53
2022-10-13T14:01:17.754Z,13.50
2022-10-13T14:03:46.062Z,13.49
2022-10-13T14:06:18.591Z,13.48
2022-10-13T14:08:47.105Z,13.45
2022-10-13T14:11:15.427Z,13.45
2022-10-13T14:13:43.728Z,13.47
2022-10-13T14:16:18.382Z,13.45
2022-10-13T14:18:47.677Z,13.45
2022-10-13T14:21:16.005Z,13.43
2022-10-13T14:23:47.131Z,13.42
2022-10-13T14:26:16.061Z,13.41
2022-10-13T14:28:45.145Z,13.40
2022-10-13T14:31:13.694Z,13.38
2022-10-13T14:33:43.811Z,13.36
2022-10-13T14:36:12.221Z,13.36
2022-10-13T14:38:40.594Z,13.34
2022-10-13T14:41:09.720Z,13.33
2022-10-13T14:43:38.841Z,13.33
2022-10-13T14:46:07.762Z,13.32
2022-10-13T14:48:37.577Z,13.31
2022-10-13T14:51:07.238Z,13.32
2022-10-13T14:53:40.920Z,13.30
2022-10-13T14:56:21.574Z,13.29
2022-10-13T14:59:02.710Z,13.27
2022-10-13T15:01:38.632Z,13.27
2022-10-13T15:04:07.932Z,13.26
2022-10-13T15:06:39.346Z,13.25
2022-10-13T15:11:42.285Z,13.24
2022-10-13T15:14:10.738Z,13.23
2022-10-13T15:16:39.165Z,13.23
2022-10-13T15:19:08.354Z,13.22
2022-10-13T15:21:36.788Z,13.22
2022-10-13T15:24:06.277Z,13.23
2022-10-13T15:26:34.970Z,13.22
2022-10-13T15:29:03.918Z,13.22
2022-10-13T15:31:32.349Z,13.23
2022-10-13T15:34:01.705Z,13.23
2022-10-13T15:36:30.029Z,13.24
2022-10-13T15:38:58.638Z,13.23
2022-10-13T15:41:26.995Z,13.24
2022-10-13T15:43:55.361Z,13.24
2022-10-13T15:46:24.429Z,13.22
2022-10-13T15:48:55.146Z,13.22
2022-10-13T15:51:24.355Z,13.20
2022-10-13T15:53:55.704Z,13.19
2022-10-13T15:56:24.040Z,13.19
2022-10-13T15:58:52.793Z,13.18
2022-10-13T16:01:21.170Z,13.18
2022-10-13T16:03:53.762Z,13.16
2022-10-13T16:06:22.582Z,13.15
2022-10-13T16:08:50.971Z,13.15
2022-10-13T16:11:21.718Z,13.14
2022-10-13T16:13:51.672Z,13.12
2022-10-13T16:16:22.334Z,13.12
2022-10-13T16:18:51.362Z,13.11
2022-10-13T16:21:28.913Z,13.09
2022-10-13T16:24:00.419Z,13.09
2022-10-13T16:26:28.795Z,13.08
2022-10-13T16:29:00.417Z,13.09
2022-10-13T16:31:29.317Z,13.09
2022-10-13T16:33:57.597Z,13.04
2022-10-13T16:36:26.078Z,12.99
2022-10-13T16:38:56.538Z,12.94
2022-10-13T16:41:25.067Z,12.88
2022-10-13T16:43:55.148Z,12.83
2022-10-13T16:46:23.902Z,12.80
2022-10-13T16:48:52.176Z,12.78
2022-10-13T16:51:23.253Z,12.76
2022-10-13T16:53:59.962Z,12.74
2022-10-13T16:56:33.050Z,12.73
2022-10-13T16:59:04.619Z,12.71
2022-10-13T17:01:34.845Z,12.69
2022-10-13T17:04:04.453Z,12.67
2022-10-13T17:06:33.160Z,12.65
2022-10-13T17:09:03.905Z,12.64
2022-10-13T17:11:34.386Z,12.62
2022-10-13T17:14:05.682Z,12.60
2022-10-13T17:16:34.216Z,12.59
2022-10-13T17:19:03.517Z,12.59
2022-10-13T17:21:34.484Z,12.58
2022-10-13T17:24:02.903Z,12.55
2022-10-13T17:26:31.545Z,12.56
2022-10-13T17:28:59.900Z,12.54
2022-10-13T17:31:28.359Z,12.52
2022-10-13T17:33:56.846Z,12.51
2022-10-13T17:36:31.842Z,12.50
2022-10-13T17:39:07.903Z,12.49
2022-10-13T17:41:40.460Z,12.48
2022-10-13T17:44:10.009Z,12.46
2022-10-13T17:46:39.486Z,12.45
2022-10-13T17:49:10.964Z,12.43
2022-10-13T17:51:40.837Z,12.43
2022-10-13T17:54:15.568Z,12.43
2022-10-13T17:56:46.692Z,12.43
2022-10-13T17:59:16.460Z,12.42
2022-10-13T18:01:45.954Z,12.41
2022-10-13T18:04:17.157Z,12.41
2022-10-13T18:06:45.884Z,12.40
2022-10-13T18:09:23.250Z,12.39
2022-10-13T18:11:53.961Z,12.38
2022-10-13T18:14:23.647Z,12.37
2022-10-13T18:16:52.629Z,12.35
2022-10-13T18:19:21.930Z,12.35
2022-10-13T18:21:55.704Z,12.34
2022-10-13T18:24:25.126Z,12.34
2022-10-13T18:26:56.138Z,12.34
2022-10-13T18:29:25.693Z,12.33
2022-10-13T18:31:56.578Z,12.33
2022-10-13T18:34:24.871Z,12.34
2022-10-13T18:36:56.663Z,12.32
2022-10-13T18:39:30.127Z,12.31
2022-10-13T18:42:01.978Z,12.30
2022-10-13T18:44:35.386Z,12.30
2022-10-13T18:47:03.920Z,12.31
2022-10-13T18:49:33.274Z,12.30
2022-10-13T18:52:04.464Z,12.29
2022-10-13T18:54:34.749Z,12.28
2022-10-13T18:57:03.175Z,12.27
2022-10-13T18:59:31.566Z,12.27
2022-10-13T19:02:01.404Z,12.28
2022-10-13T19:04:29.696Z,12.28
2022-10-13T19:06:58.016Z,12.29
2022-10-13T19:09:30.402Z,12.29
2022-10-13T19:11:58.977Z,12.29
2022-10-13T19:14:28.006Z,12.29
2022-10-13T19:17:01.606Z,12.28
2022-10-13T19:19:31.276Z,12.28
2022-10-13T19:22:02.402Z,12.26
2022-10-13T19:24:30.734Z,12.26
2022-10-13T19:26:59.025Z,12.23
2022-10-13T19:29:30.573Z,12.24
2022-10-13T19:31:58.975Z,12.23
2022-10-13T19:34:27.488Z,12.22
2022-10-13T19:37:00.436Z,12.21
2022-10-13T19:39:29.348Z,12.20
2022-10-13T19:41:57.980Z,12.20
2022-10-13T19:44:26.613Z,12.20
2022-10-13T19:46:55.494Z,12.20
2022-10-13T19:49:26.507Z,12.20
2022-10-13T19:51:57.320Z,12.21
2022-10-13T19:54:31.473Z,12.19
2022-10-13T19:57:01.475Z,12.19
2022-10-13T19:59:29.743Z,12.20
2022-10-13T20:01:58.057Z,12.19
2022-10-13T20:04:26.716Z,12.20
2022-10-13T20:06:55.127Z,12.20
2022-10-13T20:09:23.462Z,12.21
2022-10-13T20:11:57.175Z,12.21
2022-10-13T20:14:25.709Z,12.21
2022-10-13T20:16:58.485Z,12.21
2022-10-13T20:19:27.047Z,12.21
2022-10-13T20:21:56.378Z,12.20
2022-10-13T20:24:27.914Z,12.20
2022-10-13T20:26:57.832Z,12.19
2022-10-13T20:29:27.360Z,12.19
2022-10-13T20:31:55.727Z,12.18
2022-10-13T20:34:25.101Z,12.16
2022-10-13T20:36:53.640Z,12.16
2022-10-13T20:39:24.717Z,12.15
2022-10-13T20:41:53.674Z,12.15
2022-10-13T20:44:22.024Z,12.14
2022-10-13T20:46:51.939Z,12.13
2022-10-13T20:49:23.542Z,12.12
2022-10-13T20:51:51.873Z,12.12
2022-10-13T20:54:20.273Z,12.12
2022-10-13T20:56:49.629Z,12.10
2022-10-13T20:59:17.920Z,12.10
2022-10-13T21:01:46.312Z,12.11
2022-10-13T21:04:14.617Z,12.09
2022-10-13T21:06:43.510Z,12.09
2022-10-13T21:09:12.216Z,12.09
2022-10-13T21:11:43.367Z,12.09
2022-10-13T21:14:11.770Z,12.09
2022-10-13T21:16:43.342Z,12.09
2022-10-13T21:19:12.833Z,12.08
2022-10-13T21:21:41.117Z,12.11
2022-10-13T21:24:10.331Z,12.08
2022-10-13T21:26:43.125Z,12.08
2022-10-13T21:29:15.210Z,12.09
2022-10-13T21:31:43.544Z,12.08
2022-10-13T21:34:12.520Z,12.07
2022-10-13T21:36:44.351Z,12.06
2022-10-13T21:39:14.687Z,12.06
2022-10-13T21:41:43.442Z,12.05
2022-10-13T21:44:14.973Z,12.05
2022-10-13T21:46:43.464Z,12.04
2022-10-13T21:49:12.066Z,12.03
2022-10-13T21:51:40.624Z,12.03
2022-10-13T21:54:12.631Z,12.02
2022-10-13T21:56:41.924Z,12.02
2022-10-13T21:59:12.414Z,12.01
2022-10-13T22:01:41.272Z,12.00
2022-10-13T22:04:15.793Z,11.99
2022-10-13T22:06:44.474Z,11.99
2022-10-13T22:09:13.360Z,11.97
2022-10-13T22:11:42.321Z,11.95
2022-10-13T22:14:13.637Z,11.96
2022-10-13T22:16:45.713Z,11.94
2022-10-13T22:19:14.923Z,11.93
2022-10-13T22:21:46.612Z,11.92
2022-10-13T22:24:17.497Z,11.91
2022-10-13T22:26:48.714Z,11.92
2022-10-13T22:29:20.370Z,11.91
2022-10-13T22:31:50.555Z,11.90
2022-10-13T22:34:18.886Z,11.90
2022-10-13T22:36:47.524Z,11.89
2022-10-13T22:39:16.246Z,11.90
2022-10-13T22:41:44.609Z,11.89
2022-10-13T22:44:13.628Z,11.89
2022-10-13T22:46:44.743Z,11.89
2022-10-13T22:49:14.969Z,11.89
2022-10-13T22:51:43.720Z,11.90
2022-10-13T22:54:12.524Z,11.89
2022-10-13T22:56:42.091Z,11.88
2022-10-13T22:59:12.098Z,11.88
2022-10-13T23:01:40.698Z,11.88
2022-10-13T23:04:09.236Z,11.88
2022-10-13T23:06:37.716Z,11.88
2022-10-13T23:09:12.148Z,11.87
2022-10-13T23:11:40.797Z,11.86
2022-10-13T23:14:12.552Z,11.85
2022-10-13T23:16:40.906Z,11.84
2022-10-13T23:19:09.225Z,11.84
2022-10-13T23:21:38.185Z,11.84
2022-10-13T23:24:07.374Z,11.83
2022-10-13T23:26:35.794Z,11.82
2022-10-13T23:29:05.166Z,11.81
2022-10-13T23:31:33.949Z,11.80
2022-10-13T23:34:02.338Z,11.80
2022-10-13T23:36:32.242Z,11.79
2022-10-13T23:39:06.465Z,11.78
2022-10-13T23:41:35.350Z,11.77
2022-10-13T23:44:03.969Z,11.75
2022-10-13T23:46:32.229Z,11.73
2022-10-13T23:49:00.591Z,11.69
2022-10-13T23:51:29.044Z,11.69
2022-10-13T23:53:58.666Z,11.68
2022-10-13T23:56:27.074Z,11.66
2022-10-13T23:58:55.457Z,11.65
